Página principal
METAR-TAF:

METAR-TAF

Aeroportos :

Meeker Airport

Meeker, Colorado, Estados Unidos

latitude: 40-02-32N, longitude: 107-53-23W, altura: 1948 m

Observação actual do tempo

O boletim foi feito há 49 minutos, às 20:53 UTC
Vento calmo
Temperatura 6°C
Humidade 39%
Pressão 1026 hPa
Visibilidade: 16.1 km
Céu limpo

METAR: KEEO 162053Z AUTO 00000KT 10SM CLR 06/M07 A3031 RMK AO2 SLP279 T00561072 56022

Hora: 14:42 (21:42 UTC)


TAF: em falta

Observações e previsões do tempo de mais de 4000 aeroportos (mensagens METAR e TAF).

As estações disponíveis são os pontos amarelos e vermelhos sobre o mapa.

Mova o rato sobre o mapa para ver o nome da estação.

Depois clique no ponto para visualizar as observações e previsões meteorológicas.

Para alterar o mapa : clique nos botões verdes com uma cruz preta para aumentar o zoom; no botão verde com uma pitada de zoom; ou nas setas verdes para mapas adjacentes.


METAR-TAF: